Terminal Aerodrome Forecast
Issued by NWS Raleigh/Durham, NC

Home | Current Version | Previous Version | Text Only | Print | Product List | Glossary On
Versions: 1 2 3 4 5 6 7 8 9 10 11 12 13 14 15 16 17 18 19 20 21 22 23 24 25 26 27 28 29 30 31 32 33 34 35 36 37 38 39 40 41 42 43 44 45
000
FTUS42 KRAH 230853 AAB
TAFRDU
TAF AMD
KRDU 230853Z 2309/2406 VRB03KT P6SM SCT012 BKN250
      TEMPO 2309/2312 BKN012
     FM231400 14003KT 6SM -RA SCT010 OVC035
     FM231800 10005KT 6SM -RA BKN010 OVC025
     FM232100 11007KT 3SM -RA BR OVC004
     FM240300 19011KT 2SM -RADZ BR OVC003=

USA.gov is the U.S. government's official web portal to all federal, state and local government web resources and services.